createdAt,value
2018-12-06T00:00:48.864Z,10.17
2018-12-06T00:06:46.646Z,10.10
2018-12-06T00:09:17.710Z,11.60
2018-12-06T00:11:47.839Z,11.37
2018-12-06T00:27:15.803Z,12.00
2018-12-06T00:30:01.053Z,13.07
2018-12-06T00:32:33.281Z,12.00
2018-12-06T00:47:37.330Z,10.13
2018-12-06T00:50:11.361Z,11.30
2018-12-06T00:52:44.559Z,11.40
2018-12-06T00:55:25.805Z,12.47
2018-12-06T00:58:14.098Z,11.70
2018-12-06T01:00:46.856Z,12.00
2018-12-06T01:03:24.506Z,11.37
2018-12-06T01:05:55.620Z,11.90
2018-12-06T01:08:26.677Z,14.40
2018-12-06T01:10:57.990Z,11.37
2018-12-06T01:13:52.323Z,10.47
2018-12-06T01:19:53.897Z,11.50
2018-12-06T01:22:24.076Z,11.87
2018-12-06T01:25:12.797Z,10.53
2018-12-06T01:27:43.871Z,12.43
2018-12-06T01:30:17.699Z,10.80
2018-12-06T01:32:50.209Z,11.50
2018-12-06T01:57:22.713Z,11.77
2018-12-06T01:59:52.801Z,11.77
2018-12-06T02:02:22.806Z,12.13
2018-12-06T02:05:11.498Z,11.53
2018-12-06T02:07:41.513Z,11.07
2018-12-06T02:11:00.203Z,12.47
2018-12-06T02:13:46.021Z,11.23
2018-12-06T02:16:16.150Z,14.90
2018-12-06T02:18:46.149Z,13.93
2018-12-06T02:21:16.236Z,12.50
2018-12-06T02:24:01.835Z,12.57
2018-12-06T02:26:31.829Z,12.87
2018-12-06T02:29:33.078Z,12.53
2018-12-06T02:35:48.602Z,20.30
2018-12-06T02:38:29.301Z,16.87
2018-12-06T02:40:59.289Z,15.50
2018-12-06T02:47:01.987Z,11.73
2018-12-06T02:52:32.414Z,13.80
2018-12-06T02:55:19.121Z,13.53
2018-12-06T02:57:49.289Z,17.90
2018-12-06T03:00:19.290Z,13.10
2018-12-06T03:02:49.407Z,15.13
2018-12-06T03:05:29.729Z,13.80
2018-12-06T03:07:59.812Z,15.03
2018-12-06T03:10:29.811Z,18.37
2018-12-06T03:13:54.549Z,17.17
2018-12-06T03:16:25.612Z,17.70
2018-12-06T03:25:25.615Z,14.50
2018-12-06T03:27:55.627Z,18.70
2018-12-06T03:30:25.740Z,18.13
2018-12-06T03:32:55.910Z,15.93
2018-12-06T03:39:03.843Z,17.77
2018-12-06T03:41:33.876Z,23.03
2018-12-06T03:44:20.014Z,18.37
2018-12-06T03:46:49.996Z,16.07
2018-12-06T03:49:22.623Z,15.27
2018-12-06T03:51:52.676Z,17.20
2018-12-06T03:54:38.760Z,16.27
2018-12-06T03:57:08.915Z,26.30
2018-12-06T03:59:38.928Z,15.87
2018-12-06T04:02:31.452Z,18.37
2018-12-06T04:08:29.475Z,17.43
2018-12-06T04:26:32.086Z,24.43
2018-12-06T04:29:02.219Z,22.93
2018-12-06T04:31:35.297Z,21.70
2018-12-06T04:37:43.190Z,19.30
2018-12-06T04:40:21.433Z,21.30
2018-12-06T04:42:51.465Z,21.57
2018-12-06T04:45:37.736Z,18.93
2018-12-06T04:48:08.089Z,21.17
2018-12-06T04:50:38.122Z,16.83
2018-12-06T04:53:08.356Z,20.50
2018-12-06T04:55:54.726Z,21.43
2018-12-06T04:58:24.771Z,22.60
2018-12-06T05:04:11.129Z,21.50
2018-12-06T05:07:01.429Z,20.93
2018-12-06T05:12:00.977Z,17.23
2018-12-06T05:14:41.647Z,19.00
2018-12-06T05:17:20.175Z,19.43
2018-12-06T05:20:15.307Z,18.93
2018-12-06T05:23:10.781Z,20.90
2018-12-06T05:47:59.505Z,22.07
2018-12-06T06:32:50.396Z,23.90
2018-12-06T06:44:57.901Z,23.37
2018-12-06T06:47:28.605Z,23.13
2018-12-06T06:50:01.467Z,23.37
2018-12-06T06:52:31.891Z,20.47
2018-12-06T07:01:12.008Z,19.70
2018-12-06T07:03:58.121Z,17.90
2018-12-06T07:06:28.277Z,19.73
2018-12-06T07:08:58.485Z,17.90
2018-12-06T07:11:28.590Z,18.50
2018-12-06T07:17:27.222Z,19.10
2018-12-06T07:20:20.775Z,20.77
2018-12-06T07:22:50.760Z,18.23
2018-12-06T07:28:34.754Z,19.57
2018-12-06T07:31:05.134Z,18.80
2018-12-06T07:33:51.793Z,15.90
2018-12-06T07:36:23.316Z,17.80
2018-12-06T07:39:14.142Z,17.60
2018-12-06T07:55:45.386Z,18.70
2018-12-06T08:01:22.266Z,21.37
2018-12-06T08:04:10.771Z,19.97
2018-12-06T08:06:43.019Z,18.23
2018-12-06T08:09:14.409Z,19.90
2018-12-06T08:11:44.513Z,22.20
2018-12-06T08:17:14.444Z,23.97
2018-12-06T08:19:45.587Z,26.80
2018-12-06T08:22:15.682Z,24.23
2018-12-06T08:25:01.968Z,24.80
2018-12-06T08:27:32.076Z,25.50
2018-12-06T08:30:02.268Z,28.37
2018-12-06T08:32:36.512Z,28.70
2018-12-06T08:54:08.182Z,31.90
2018-12-06T08:56:38.421Z,34.50
2018-12-06T09:08:47.031Z,35.50
2018-12-06T09:11:19.059Z,38.67
2018-12-06T09:29:56.494Z,42.13
2018-12-06T09:32:52.823Z,37.10
2018-12-06T09:51:36.142Z,28.40
2018-12-06T10:00:54.348Z,22.10
2018-12-06T10:03:34.214Z,22.93
2018-12-06T10:06:16.807Z,22.87
2018-12-06T10:08:47.150Z,26.13
2018-12-06T10:11:19.005Z,21.90
2018-12-06T10:14:05.145Z,26.60
2018-12-06T10:16:35.288Z,22.57
2018-12-06T10:19:05.370Z,23.63
2018-12-06T10:21:59.686Z,22.47
2018-12-06T10:28:00.703Z,24.27
2018-12-06T10:30:33.396Z,30.53
2018-12-06T10:33:04.215Z,28.30
2018-12-06T10:39:02.425Z,39.03
2018-12-06T10:44:48.927Z,34.37
2018-12-06T10:47:24.335Z,37.97
2018-12-06T10:49:54.335Z,36.37
2018-12-06T10:52:26.179Z,36.53
2018-12-06T11:01:30.314Z,38.40
2018-12-06T11:04:16.202Z,37.20
2018-12-06T11:07:05.525Z,34.27
2018-12-06T11:09:36.689Z,36.73
2018-12-06T11:12:25.031Z,34.87
2018-12-06T11:18:00.712Z,32.00
2018-12-06T11:20:32.882Z,32.07
2018-12-06T11:23:02.958Z,39.90
2018-12-06T11:25:50.838Z,34.43
2018-12-06T11:28:39.817Z,27.93
2018-12-06T11:31:10.109Z,33.20
2018-12-06T11:33:56.428Z,27.87
2018-12-06T11:36:45.272Z,23.30
2018-12-06T11:39:15.316Z,29.80
2018-12-06T11:41:45.377Z,22.87
2018-12-06T11:44:32.268Z,27.80
2018-12-06T11:47:20.451Z,23.70
2018-12-06T11:53:19.861Z,18.17
2018-12-06T11:56:02.191Z,22.33
2018-12-06T11:58:33.324Z,28.20
2018-12-06T12:01:21.179Z,23.23
2018-12-06T12:04:07.471Z,21.30
2018-12-06T12:06:40.101Z,26.90
2018-12-06T12:09:25.936Z,25.47
2018-12-06T12:11:56.050Z,24.93
2018-12-06T12:28:22.323Z,22.87
2018-12-06T12:39:08.343Z,23.90
2018-12-06T12:41:38.585Z,18.90
2018-12-06T12:44:24.827Z,20.20
2018-12-06T12:47:13.729Z,21.53
2018-12-06T12:50:03.017Z,26.60
2018-12-06T13:02:11.533Z,22.70
2018-12-06T13:04:57.555Z,13.83
2018-12-06T13:07:45.476Z,13.50
2018-12-06T13:10:15.856Z,12.90
2018-12-06T13:13:03.739Z,12.90
2018-12-06T13:15:50.055Z,15.33
2018-12-06T13:18:38.757Z,10.50
2018-12-06T13:21:26.998Z,15.00
2018-12-06T13:24:13.461Z,15.87
2018-12-06T13:30:11.346Z,15.67
2018-12-06T13:32:41.656Z,12.73
2018-12-06T13:35:29.626Z,11.50
2018-12-06T13:38:25.312Z,18.17
2018-12-06T13:40:55.556Z,13.87
2018-12-06T13:46:43.356Z,20.23
2018-12-06T13:49:14.067Z,15.27
2018-12-06T13:51:44.273Z,14.80
2018-12-06T14:00:48.958Z,17.50
2018-12-06T14:03:37.491Z,17.17
2018-12-06T14:06:25.387Z,18.43
2018-12-06T14:09:13.207Z,13.87
2018-12-06T14:12:02.368Z,14.67
2018-12-06T14:14:57.516Z,15.83
2018-12-06T14:21:05.081Z,16.17
2018-12-06T14:23:53.874Z,15.70
2018-12-06T14:26:46.407Z,17.63
2018-12-06T14:29:16.372Z,14.93
2018-12-06T14:31:46.245Z,13.27
2018-12-06T14:40:53.930Z,16.67
2018-12-06T14:47:02.405Z,14.63
2018-12-06T14:49:52.254Z,16.83
2018-12-06T14:52:40.286Z,15.67
2018-12-06T14:58:30.127Z,15.10
2018-12-06T15:01:18.113Z,15.73
2018-12-06T15:04:07.497Z,13.93
2018-12-06T15:06:37.933Z,21.33
2018-12-06T15:09:09.690Z,11.73
2018-12-06T15:11:39.658Z,15.97
2018-12-06T15:14:26.363Z,13.37
2018-12-06T15:17:06.440Z,13.53
2018-12-06T15:19:52.046Z,25.67
2018-12-06T15:22:40.742Z,15.63
2018-12-06T15:28:28.629Z,17.40
2018-12-06T15:30:58.840Z,15.70
2018-12-06T15:33:47.033Z,16.70
2018-12-06T15:36:26.763Z,14.53
2018-12-06T15:45:22.848Z,11.50
2018-12-06T15:47:54.457Z,11.10
2018-12-06T15:50:24.800Z,15.93
2018-12-06T15:52:54.988Z,13.63
2018-12-06T15:59:03.851Z,11.13
2018-12-06T16:08:12.165Z,12.50
2018-12-06T16:10:43.201Z,9.13
2018-12-06T16:13:13.238Z,11.13
2018-12-06T16:15:46.212Z,10.87
2018-12-06T16:18:16.278Z,13.63
2018-12-06T16:20:48.244Z,10.03
2018-12-06T16:23:36.612Z,18.07
2018-12-06T16:26:16.764Z,13.13
2018-12-06T16:28:46.932Z,13.83
2018-12-06T16:31:17.000Z,12.43
2018-12-06T16:33:57.374Z,16.97
2018-12-06T16:39:40.925Z,12.40
2018-12-06T16:45:27.470Z,11.03
2018-12-06T16:48:15.259Z,19.87
2018-12-06T16:51:03.062Z,13.60
2018-12-06T16:53:51.263Z,10.40
2018-12-06T16:56:21.336Z,12.60
2018-12-06T16:58:51.717Z,11.23
2018-12-06T17:01:21.671Z,12.13
2018-12-06T17:04:07.283Z,15.37
2018-12-06T17:06:51.571Z,11.20
2018-12-06T17:12:37.752Z,11.83
2018-12-06T17:15:24.175Z,8.10
2018-12-06T17:18:12.441Z,9.20
2018-12-06T17:20:42.436Z,9.87
2018-12-06T17:23:31.549Z,8.43
2018-12-06T17:29:29.527Z,9.30
2018-12-06T17:32:15.227Z,19.57
2018-12-06T17:41:14.298Z,7.40
2018-12-06T17:44:00.642Z,9.73
2018-12-06T17:46:49.024Z,11.17
2018-12-06T17:49:43.995Z,9.77
2018-12-06T17:55:44.883Z,11.73
2018-12-06T17:58:14.750Z,7.97
2018-12-06T18:00:45.491Z,9.93
2018-12-06T18:03:15.755Z,11.00
2018-12-06T18:05:46.719Z,8.00
2018-12-06T18:08:16.748Z,11.37
2018-12-06T18:10:47.144Z,10.73
2018-12-06T18:13:35.068Z,8.37
2018-12-06T18:16:29.813Z,8.30
2018-12-06T18:18:59.692Z,9.83
2018-12-06T18:21:29.614Z,7.97
2018-12-06T18:24:09.845Z,8.20
2018-12-06T18:26:58.466Z,8.27
2018-12-06T18:29:28.757Z,7.60
2018-12-06T18:32:03.546Z,11.40
2018-12-06T18:34:49.312Z,10.63
2018-12-06T18:37:37.773Z,9.00
2018-12-06T18:40:07.913Z,11.07
2018-12-06T18:42:37.904Z,9.33
2018-12-06T18:48:17.261Z,8.13
2018-12-06T18:51:05.804Z,9.50
2018-12-06T19:00:22.937Z,12.83
2018-12-06T19:31:26.615Z,12.90
2018-12-06T19:34:13.103Z,12.40
2018-12-06T19:43:26.588Z,18.43
2018-12-06T19:49:27.278Z,13.00
2018-12-06T19:55:25.809Z,15.47
2018-12-06T20:07:53.452Z,14.37
2018-12-06T20:10:41.358Z,15.80
2018-12-06T20:13:29.191Z,19.00
2018-12-06T20:15:59.087Z,16.13
2018-12-06T20:18:29.340Z,15.47
2018-12-06T20:21:11.864Z,15.97
2018-12-06T20:23:59.545Z,14.63
2018-12-06T20:26:29.891Z,14.23
2018-12-06T20:29:00.049Z,14.80
2018-12-06T20:37:32.537Z,15.07
2018-12-06T20:40:23.454Z,15.13
2018-12-06T20:42:53.734Z,13.77
2018-12-06T20:48:52.291Z,15.83
2018-12-06T20:51:40.296Z,15.13
2018-12-06T20:54:28.857Z,13.63
2018-12-06T20:57:16.626Z,17.20
2018-12-06T21:00:04.873Z,16.13
2018-12-06T21:09:20.043Z,14.40
2018-12-06T21:12:07.911Z,14.50
2018-12-06T21:17:46.582Z,15.57
2018-12-06T21:20:33.282Z,16.17
2018-12-06T21:23:22.239Z,14.20
2018-12-06T21:28:52.660Z,13.90
2018-12-06T21:34:38.969Z,13.80
2018-12-06T21:37:09.019Z,16.20
2018-12-06T21:42:57.165Z,15.67
2018-12-06T21:45:43.555Z,12.83
2018-12-06T21:48:35.909Z,13.83
2018-12-06T21:51:06.430Z,13.63
2018-12-06T21:53:50.142Z,15.67
2018-12-06T21:56:20.410Z,15.37
2018-12-06T21:59:08.896Z,15.13
2018-12-06T22:01:40.040Z,13.47
2018-12-06T22:04:26.171Z,13.63
2018-12-06T22:38:48.751Z,8.90
2018-12-06T22:41:18.869Z,8.03
2018-12-06T23:09:16.002Z,8.30
2018-12-06T23:11:46.376Z,8.10
2018-12-06T23:14:36.355Z,7.73
2018-12-06T23:17:19.586Z,9.40
2018-12-06T23:20:16.695Z,8.03
2018-12-06T23:23:10.604Z,8.97
2018-12-06T23:29:18.914Z,12.20
2018-12-06T23:35:13.130Z,7.97
2018-12-06T23:38:01.071Z,10.20
2018-12-06T23:40:46.960Z,7.90
2018-12-06T23:46:44.761Z,9.40
2018-12-06T23:52:47.389Z,6.40
